• Join FlightAware (Why Join?)
  • Login
  • US Flag 
10:28PM EST


 

Airport Tracker/Info


-or-


 

Live Flight TrackerFlight Track Log ✈ AWE1693 ✈ 18-May-2013 ✈ KDCA - KCLT

Flight Track Log - Related Links

Times and Time Zones

All times are in EDT time to prevent confusion due to time zone crossing. See the AWE1693 flight status page for this flight to view local times or setup timezone preferences in your user account.

Time Position Orientation Groundspeed Altitude Reporting Facility
EDT Latitude Longitude Course Direction KTS MPH feet Rate Location/Type
09:22AM 38.8167 -77.0333 201° Southwest 154 177 1,800  Level Potomac TRACON
09:23AM 38.7667 -77.0333 180° South 215 247 4,000 2,160 Climbing Potomac TRACON
09:24AM 38.6308 -77.2696 222° Southwest  Level FlightAware Approximate
09:24AM 38.7500 -77.1000 252° West 259 298 6,000  Level Potomac TRACON
09:25AM 38.5570 -77.3558 222° Southwest  Level FlightAware Approximate
09:25AM 38.7333 -77.2167 260° West 286 329 9,100  Level Potomac TRACON
09:26AM 38.4855 -77.4449 225° Southwest  Level FlightAware Approximate
09:26AM 38.6833 -77.3000 232° Southwest 315 362 11,000  Level Potomac TRACON
09:27AM 38.4145 -77.5344 201° Southwest  Level FlightAware Approximate
09:27AM 38.6000 -77.3667 212° Southwest 358 412 12,000  Level Potomac TRACON
09:27AM 38.5789 -77.3922 223° Southwest 358 412 12,900 2,340 Climbing Washington Center
09:28AM 38.4983 -77.4700 217° Southwest 375 432 15,300 2,280 Climbing Washington Center
09:29AM 38.4158 -77.5500 217° Southwest 381 438 17,500 1,920 Climbing Washington Center
09:30AM 38.3433 -77.6514 228° Southwest 381 438 19,200 1,800 Climbing Washington Center
09:31AM 38.2747 -77.7578 231° Southwest 387 445 21,200 1,740 Climbing Washington Center
09:32AM 38.2017 -77.8694 230° Southwest 400 460 22,800 1,560 Climbing Washington Center
09:33AM 38.1308 -77.9781 230° Southwest 410 472 24,300 1,380 Climbing Washington Center
09:34AM 38.0533 -78.0944 230° Southwest 420 483 25,600 840 Climbing Washington Center
09:35AM 37.9800 -78.2106 231° Southwest 425 489 26,000 180 Climbing Washington Center
09:36AM 37.9067 -78.3131 228° Southwest 430 495 26,000 240 Level Washington Center
09:37AM 37.8269 -78.4286 229° Southwest 435 501 26,500 960 Climbing Washington Center
09:38AM 37.7450 -78.5436 228° Southwest 440 506 28,000 720 Climbing Washington Center
09:39AM 37.6647 -78.6586 229° Southwest 440 506 28,000  Level Washington Center
09:40AM 37.5717 -78.7886 228° Southwest 454 522 28,000  Level Washington Center
09:41AM 37.4892 -78.9053 228° Southwest 454 522 28,000  Level Washington Center
09:42AM 37.4089 -79.0197 229° Southwest 454 522 28,000  Level Washington Center
09:43AM 37.3286 -79.1283 227° Southwest 449 517 28,000 -120 Level Washington Center
09:44AM 37.2503 -79.2369 228° Southwest 437 503 27,800 -600 Descending Washington Center
09:45AM 37.1644 -79.3111 215° Southwest 419 482 26,900 -960 Descending Washington Center
09:46AM 37.0703 -79.3897 214° Southwest 419 482 26,000 -480 Descending Washington Center
09:47AM 36.9739 -79.4681 213° Southwest 419 482 26,000  Level Washington Center
09:48AM 36.8772 -79.5464 213° Southwest 419 482 26,000  Level Washington Center
09:49AM 36.7744 -79.6319 214° Southwest 413 475 26,000  Level Washington Center
09:50AM 36.6800 -79.7100 214° Southwest 413 475 26,000 -660 Level Washington Center
09:52AM 36.4450 -79.8964 213° Southwest 433 498 23,900 -1,020 Descending Atlanta Center
09:53AM 36.3497 -79.9736 213° Southwest 423 487 22,600 -960 Descending Atlanta Center
09:54AM 36.2542 -80.0531 214° Southwest 417 480 22,000 -540 Descending Atlanta Center
09:55AM 36.1608 -80.1347 215° Southwest 417 480 21,600 -2,100 Descending Atlanta Center
09:56AM 36.0633 -80.2167 214° Southwest 407 468 17,800 -2,880 Descending Atlanta Center
09:57AM 35.9800 -80.2872 214° Southwest 394 453 15,900 -1,920 Descending Atlanta Center
09:58AM 35.9322 -80.3614 232° Southwest 300 345 14,200 -1,740 Descending Atlanta Center
09:59AM 35.9008 -80.4242 238° Southwest 292 336 13,200 -1,080 Descending Atlanta Center
09:59AM 35.8803 -80.4381 209° Southwest 308 354 13,000 -180 Descending Atlanta Center
10:00AM 35.8081 -80.4667 198° South 293 337 13,000 -840 Level Atlanta Center
10:01AM 35.7342 -80.5033 202° Southwest 282 325 11,500 -1,080 Descending Atlanta Center
10:02AM 35.6814 -80.5592 221° Southwest 280 322 11,000 -480 Descending Atlanta Center
10:02AM 35.6756 -80.5722 241° Southwest 276 318 11,000 -1,080 Level Atlanta Center
10:03AM 35.6425 -80.6606 245° Southwest 282 325 9,700 -1,560 Descending Atlanta Center
10:04AM 35.5961 -80.7186 226° Southwest 277 319 8,300 -1,680 Descending Atlanta Center
10:05AM 35.5397 -80.7897 226° Southwest 271 312 6,700 -1,440 Descending Atlanta Center
10:06AM 35.4892 -80.8531 226° Southwest 259 298 5,500 -960 Descending Atlanta Center
10:07AM 35.4678 -80.9150 247° West 192 221 4,800 -780 Descending Atlanta Center
10:08AM 35.4267 -80.9394 206° Southwest 151 174 4,000 -600 Descending Atlanta Center
10:09AM 35.3753 -80.9644 202° Southwest 171 197 3,700 -600 Descending Atlanta Center
10:10AM 35.3294 -80.9764 192° South 184 212 2,800 -900 Descending Atlanta Center